Time;durP1;ratioP1;P1;durP2;ratioP2;P2;SDS_P1;SDS_P2;PMS_P1;PMS_P2;Temp;Humidity;BMP_temperature;BMP_pressure;BME280_temperature;BME280_humidity;BME280_pressure;Samples;Min_cycle;Max_cycle;Signal;HPM_P1;HPM_P2
2022/03/15 00:00:52;;;;;;;40.98;24.47;;;;;;;2.56;53.25;100803.73;1780489;80;20915;-63
2022/03/15 00:03:21;;;;;;;39.27;24.07;;;;;;;2.57;53.33;100800.19;1782920;80;21607;-63
2022/03/15 00:05:49;;;;;;;42.45;25.08;;;;;;;2.56;53.41;100806.83;1782935;80;20851;-63
2022/03/15 00:08:19;;;;;;;41.63;23.85;;;;;;;2.58;53.43;100806.30;1768685;80;21309;-64
2022/03/15 00:10:48;;;;;;;42.35;24.30;;;;;;;2.59;53.48;100807.97;1769402;80;20932;-62
2022/03/15 00:13:16;;;;;;;40.08;23.45;;;;;;;2.58;53.53;100807.16;1782239;80;20860;-63
2022/03/15 00:15:44;;;;;;;38.73;21.75;;;;;;;2.57;53.62;100808.08;1782616;80;20911;-64
2022/03/15 00:18:12;;;;;;;38.67;23.75;;;;;;;2.58;53.65;100802.36;1766625;80;21484;-63
2022/03/15 00:20:40;;;;;;;40.75;24.45;;;;;;;2.58;53.66;100808.92;1781094;80;21932;-63
2022/03/15 00:23:07;;;;;;;40.85;23.47;;;;;;;2.58;53.74;100808.92;1782581;80;20974;-63
2022/03/15 00:25:36;;;;;;;47.73;25.08;;;;;;;2.57;53.84;100808.08;1782222;80;21021;-62
2022/03/15 00:28:04;;;;;;;45.17;25.55;;;;;;;2.56;53.89;100801.58;1778841;80;20983;-63
2022/03/15 00:30:31;;;;;;;43.45;24.85;;;;;;;2.57;53.91;100796.71;1779673;80;20960;-63
2022/03/15 00:33:00;;;;;;;45.25;25.32;;;;;;;2.59;53.91;100794.84;1782783;80;21329;-62
2022/03/15 00:35:27;;;;;;;45.60;26.15;;;;;;;2.61;53.88;100791.67;1782438;80;20852;-63
2022/03/15 00:37:55;;;;;;;47.48;26.27;;;;;;;2.61;53.92;100789.05;1770088;80;20852;-63
2022/03/15 00:40:23;;;;;;;45.73;25.25;;;;;;;2.62;53.90;100786.32;1777739;80;21014;-62
2022/03/15 00:42:52;;;;;;;42.43;23.05;;;;;;;2.62;53.89;100784.16;1782535;80;20982;-62
2022/03/15 00:45:24;;;;;;;47.85;25.12;;;;;;;2.62;53.91;100787.63;1782544;80;21172;-62
2022/03/15 00:47:52;;;;;;;42.90;24.12;;;;;;;2.63;53.91;100784.55;1780093;80;21457;-64
2022/03/15 00:50:25;;;;;;;37.73;21.95;;;;;;;2.64;53.95;100780.97;1782498;80;20962;-63
2022/03/15 00:52:53;;;;;;;39.08;22.77;;;;;;;2.63;53.99;100773.58;1770653;80;21437;-62
2022/03/15 00:55:20;;;;;;;40.78;24.80;;;;;;;2.64;54.00;100771.30;1779273;80;21021;-62
2022/03/15 00:57:47;;;;;;;40.58;23.20;;;;;;;2.64;53.93;100767.37;1775033;80;21209;-64
2022/03/15 01:00:16;;;;;;;46.92;24.80;;;;;;;2.62;53.81;100768.39;1771681;80;20852;-61
2022/03/15 01:02:44;;;;;;;45.58;25.82;;;;;;;2.56;53.77;100770.91;1758978;80;20900;-63
2022/03/15 01:05:11;;;;;;;38.35;23.98;;;;;;;2.48;53.79;100768.72;1769862;80;20955;-62
2022/03/15 01:07:39;;;;;;;44.58;25.62;;;;;;;2.42;53.91;100766.44;1770763;80;20967;-63
2022/03/15 01:10:08;;;;;;;39.53;25.08;;;;;;;2.33;54.06;100763.03;1756525;80;21212;-63
2022/03/15 01:12:36;;;;;;;49.58;29.25;;;;;;;2.30;54.06;100762.35;1771858;80;21040;-63
2022/03/15 01:15:07;;;;;;;46.37;26.50;;;;;;;2.25;54.07;100763.08;1774692;80;21158;-64
2022/03/15 01:17:34;;;;;;;41.37;24.37;;;;;;;2.18;54.08;100759.97;1773288;80;20935;-63
2022/03/15 01:20:05;;;;;;;44.35;25.05;;;;;;;2.08;54.19;100756.63;1762682;80;20935;-63
2022/03/15 01:22:34;;;;;;;38.98;24.23;;;;;;;2.01;54.31;100755.30;1773055;80;21894;-63
2022/03/15 01:25:01;;;;;;;41.60;24.20;;;;;;;1.94;54.43;100763.11;1774557;80;20983;-63
2022/03/15 01:27:29;;;;;;;40.52;25.43;;;;;;;1.85;54.69;100763.17;1769631;80;20995;-64
2022/03/15 01:29:57;;;;;;;40.80;23.42;;;;;;;1.78;54.95;100757.40;1766386;80;20864;-64
2022/03/15 01:32:25;;;;;;;37.85;22.67;;;;;;;1.74;55.22;100758.97;1768669;80;20924;-63
2022/03/15 01:34:53;;;;;;;38.42;22.02;;;;;;;1.70;55.35;100753.48;1772060;80;21312;-63
2022/03/15 01:37:20;;;;;;;44.80;23.83;;;;;;;1.66;55.51;100754.14;1774569;80;21529;-63
2022/03/15 01:39:49;;;;;;;36.08;22.55;;;;;;;1.62;55.79;100742.56;1774742;80;21441;-62
2022/03/15 01:42:16;;;;;;;35.60;21.00;;;;;;;1.62;56.00;100746.50;1762386;80;20896;-62
2022/03/15 01:44:47;;;;;;;31.97;20.35;;;;;;;1.62;56.18;100741.25;1765221;80;20986;-62
2022/03/15 01:47:15;;;;;;;36.08;22.40;;;;;;;1.64;56.40;100738.11;1774632;80;21272;-64
2022/03/15 01:49:42;;;;;;;28.50;19.15;;;;;;;1.65;56.63;100741.09;1774912;80;20915;-63
2022/03/15 01:52:15;;;;;;;35.33;19.95;;;;;;;1.67;56.78;100736.59;1761645;80;21530;-63
2022/03/15 01:54:43;;;;;;;34.23;19.90;;;;;;;1.71;56.90;100740.77;1763867;80;20891;-63
2022/03/15 01:57:13;;;;;;;35.47;20.43;;;;;;;1.75;56.93;100732.63;1774433;80;20982;-63
2022/03/15 01:59:41;;;;;;;32.13;19.85;;;;;;;1.80;56.92;100736.31;1778039;80;21930;-63
2022/03/15 02:02:09;;;;;;;29.72;18.45;;;;;;;1.85;56.89;100740.86;1783061;80;20978;-63
2022/03/15 02:04:37;;;;;;;29.67;18.77;;;;;;;1.88;56.89;100734.96;1770201;80;20954;-63
2022/03/15 02:07:15;;;;;;;36.33;18.35;;;;;;;1.91;56.82;100736.56;1770867;80;20997;-63
2022/03/15 02:09:44;;;;;;;27.45;17.85;;;;;;;1.93;56.82;100738.63;1772414;80;20899;-63
2022/03/15 02:12:13;;;;;;;30.35;18.73;;;;;;;1.97;56.73;100735.38;1780535;80;20931;-63
2022/03/15 02:14:42;;;;;;;30.10;18.98;;;;;;;1.97;56.68;100728.82;1761246;80;20931;-63
2022/03/15 02:17:09;;;;;;;33.85;20.72;;;;;;;1.99;56.66;100736.13;1777613;80;21034;-62
2022/03/15 02:19:37;;;;;;;33.40;20.77;;;;;;;1.99;56.58;100739.61;1770426;80;21505;-63
2022/03/15 02:22:06;;;;;;;50.83;27.35;;;;;;;1.97;56.49;100740.63;1781407;80;20915;-62
2022/03/15 02:24:34;;;;;;;132.75;54.83;;;;;;;1.95;56.45;100735.48;1779143;80;21517;-62
2022/03/15 02:27:03;;;;;;;89.00;40.88;;;;;;;1.92;56.50;100738.73;1782765;80;21465;-64
2022/03/15 02:29:30;;;;;;;88.35;39.08;;;;;;;1.88;56.54;100737.59;1782556;80;20994;-62
2022/03/15 02:31:58;;;;;;;55.33;28.95;;;;;;;1.85;56.57;100731.19;1782672;80;20926;-64
2022/03/15 02:34:26;;;;;;;44.77;25.57;;;;;;;1.81;56.61;100733.62;1759946;80;20891;-63
2022/03/15 02:36:55;;;;;;;42.85;25.30;;;;;;;1.76;56.62;100732.17;1773806;80;20951;-62
2022/03/15 02:39:22;;;;;;;37.90;21.70;;;;;;;1.68;56.71;100732.59;1759142;80;20996;-63
2022/03/15 02:41:51;;;;;;;35.65;21.82;;;;;;;1.64;56.83;100736.30;1781345;80;20970;-62
2022/03/15 02:44:23;;;;;;;34.53;21.50;;;;;;;1.62;57.16;100734.23;1782202;80;20986;-63
2022/03/15 02:46:50;;;;;;;31.10;19.82;;;;;;;1.59;57.37;100729.64;1781048;80;20969;-62
2022/03/15 02:49:18;;;;;;;34.20;21.60;;;;;;;1.61;57.54;100735.19;1782311;80;22195;-61
2022/03/15 02:51:45;;;;;;;32.88;20.95;;;;;;;1.63;57.60;100728.07;1775374;80;21452;-62
2022/03/15 02:54:14;;;;;;;32.10;20.88;;;;;;;1.66;57.64;100732.30;1778633;80;21472;-63
2022/03/15 02:56:47;;;;;;;32.95;21.02;;;;;;;1.67;57.71;100728.73;1770564;80;20979;-63
2022/03/15 02:59:17;;;;;;;33.90;20.68;;;;;;;1.65;57.80;100724.04;1779999;80;20981;-63
2022/03/15 03:01:45;;;;;;;35.85;21.23;;;;;;;1.67;57.83;100720.40;1755679;80;21869;-62
2022/03/15 03:04:12;;;;;;;36.85;22.60;;;;;;;1.67;57.77;100724.34;1769949;80;21489;-62
2022/03/15 03:06:43;;;;;;;49.70;25.55;;;;;;;1.69;57.81;100729.05;1754267;80;21496;-63
2022/03/15 03:09:16;;;;;;;65.75;33.38;;;;;;;1.72;57.87;100731.98;1769644;80;21477;-62
2022/03/15 03:11:39;;;;;;;64.32;31.52;;;;;;;1.74;57.88;100730.11;1756330;80;21014;-63
2022/03/15 03:14:06;;;;;;;56.00;29.67;;;;;;;1.75;57.87;100728.70;1768853;80;21243;-63
2022/03/15 03:16:34;;;;;;;50.00;26.75;;;;;;;1.78;57.86;100730.30;1772118;80;20999;-63
2022/03/15 03:19:04;;;;;;;41.45;23.40;;;;;;;1.78;57.88;100726.38;1772735;80;21087;-63
2022/03/15 03:21:34;;;;;;;38.98;22.02;;;;;;;1.79;57.88;100721.05;1764974;80;21646;-63
2022/03/15 03:24:04;;;;;;;34.73;20.00;;;;;;;1.80;57.86;100715.31;1774536;80;20947;-62
2022/03/15 03:26:32;;;;;;;29.65;18.98;;;;;;;1.80;57.82;100713.55;1773937;80;21260;-63
2022/03/15 03:28:59;;;;;;;26.57;17.02;;;;;;;1.81;57.80;100718.33;1764356;80;20963;-62
2022/03/15 03:31:30;;;;;;;25.15;16.52;;;;;;;1.82;57.77;100716.10;1763796;80;20926;-62
2022/03/15 03:33:57;;;;;;;25.55;17.05;;;;;;;1.82;57.77;100717.41;1774445;80;20952;-63
2022/03/15 03:36:24;;;;;;;31.12;18.50;;;;;;;1.83;57.79;100715.15;1774472;80;20911;-64
2022/03/15 03:38:54;;;;;;;35.63;21.30;;;;;;;1.83;57.74;100718.63;1763682;80;22182;-61
2022/03/15 03:41:21;;;;;;;40.05;23.55;;;;;;;1.85;57.75;100718.56;1758566;80;20924;-63
2022/03/15 03:43:50;;;;;;;38.92;23.67;;;;;;;1.85;57.75;100712.00;1774485;80;21396;-63
2022/03/15 03:46:17;;;;;;;32.73;20.77;;;;;;;1.84;57.81;100708.52;1774273;80;20904;-64
2022/03/15 03:48:45;;;;;;;34.90;20.68;;;;;;;1.84;57.85;100703.27;1772801;80;20888;-63
2022/03/15 03:51:13;;;;;;;25.62;17.95;;;;;;;1.83;57.86;100705.51;1754200;80;21145;-63
2022/03/15 03:53:41;;;;;;;22.67;16.30;;;;;;;1.81;57.87;100705.21;1763135;80;21002;-62
2022/03/15 03:56:09;;;;;;;20.68;15.43;;;;;;;1.78;57.91;100707.55;1774502;80;20935;-62
2022/03/15 03:58:36;;;;;;;21.00;14.60;;;;;;;1.78;57.98;100714.56;1759191;80;21482;-63
2022/03/15 04:01:04;;;;;;;21.80;15.30;;;;;;;1.75;58.05;100709.02;1772349;80;20963;-63
2022/03/15 04:03:33;;;;;;;22.60;15.20;;;;;;;1.75;58.10;100706.39;1774218;80;21251;-63
2022/03/15 04:06:03;;;;;;;21.05;14.65;;;;;;;1.73;58.22;100708.72;1774643;80;20931;-63
2022/03/15 04:08:32;;;;;;;20.37;14.73;;;;;;;1.75;58.22;100710.80;1774189;80;21517;-63
2022/03/15 04:10:59;;;;;;;22.75;14.70;;;;;;;1.75;58.21;100710.33;1772040;80;20923;-62
2022/03/15 04:13:26;;;;;;;28.87;18.23;;;;;;;1.76;58.19;100707.25;1753707;80;20888;-62
2022/03/15 04:15:55;;;;;;;24.30;17.05;;;;;;;1.77;58.20;100709.77;1774310;80;20875;-63
2022/03/15 04:18:28;;;;;;;24.57;15.50;;;;;;;1.76;58.23;100704.16;1716259;79;21146;-63
2022/03/15 04:20:56;;;;;;;19.87;15.10;;;;;;;1.79;58.24;100701.84;1707936;83;20911;-62
2022/03/15 04:23:23;;;;;;;21.65;14.40;;;;;;;1.79;58.23;100702.69;1710278;83;21512;-63
2022/03/15 04:25:51;;;;;;;19.75;13.43;;;;;;;1.81;58.33;100703.91;1718326;83;21520;-62
2022/03/15 04:28:19;;;;;;;20.77;13.88;;;;;;;1.83;58.41;100699.41;1717490;83;21256;-64
2022/03/15 04:30:47;;;;;;;19.37;12.70;;;;;;;1.86;58.42;100692.68;1709206;83;21556;-63
2022/03/15 04:33:16;;;;;;;19.30;12.73;;;;;;;1.88;58.40;100691.66;1713026;83;20907;-63
2022/03/15 04:35:43;;;;;;;16.62;13.45;;;;;;;1.92;58.36;100688.87;1718452;83;21079;-62
2022/03/15 04:38:11;;;;;;;18.65;13.22;;;;;;;1.93;58.25;100685.33;1712746;83;20966;-63
2022/03/15 04:40:38;;;;;;;18.00;13.88;;;;;;;1.99;58.22;100683.18;1690555;83;21913;-63
2022/03/15 04:43:06;;;;;;;23.52;16.20;;;;;;;2.08;58.23;100683.98;1701188;83;21708;-63
2022/03/15 04:45:34;;;;;;;22.95;16.60;;;;;;;2.20;58.17;100668.83;1717364;83;20998;-62
2022/03/15 04:48:01;;;;;;;19.85;15.43;;;;;;;2.35;57.98;100675.81;1718435;83;20935;-63
2022/03/15 04:50:30;;;;;;;21.65;15.08;;;;;;;2.54;57.72;100669.01;1714675;83;21592;-64
2022/03/15 04:52:58;;;;;;;25.85;17.52;;;;;;;2.76;57.35;100669.44;1709864;83;21843;-62
2022/03/15 04:55:25;;;;;;;29.07;18.15;;;;;;;3.00;56.95;100674.50;1717685;83;20927;-64
2022/03/15 04:57:54;;;;;;;26.73;18.25;;;;;;;3.30;56.57;100671.77;1718563;83;21470;-63
2022/03/15 05:00:22;;;;;;;25.08;17.35;;;;;;;3.58;55.92;100670.41;1716833;83;21003;-62
2022/03/15 05:02:49;;;;;;;22.65;16.60;;;;;;;3.88;55.20;100672.02;1702531;83;21086;-62
2022/03/15 05:05:16;;;;;;;23.40;16.48;;;;;;;4.15;54.55;100671.06;1717683;83;21318;-62
2022/03/15 05:07:45;;;;;;;23.05;17.05;;;;;;;4.48;53.92;100669.30;1718291;83;20962;-62
2022/03/15 05:12:58;;;;;;;30.12;19.32;;;;;;;5.24;52.51;100671.45;1704246;83;20947;-62
2022/03/15 05:15:25;;;;;;;35.00;22.05;;;;;;;5.76;51.46;100665.93;1717664;83;20967;-63
2022/03/15 05:17:52;;;;;;;36.98;23.40;;;;;;;6.21;50.46;100659.95;1713986;83;21262;-63
2022/03/15 05:20:20;;;;;;;43.40;25.70;;;;;;;6.62;49.43;100656.83;1703528;83;20983;-64
2022/03/15 05:22:48;;;;;;;42.17;26.12;;;;;;;7.00;48.38;100650.41;1702513;83;21422;-62
2022/03/15 05:25:15;;;;;;;42.55;26.00;;;;;;;7.38;47.41;100657.48;1710068;83;21458;-63
2022/03/15 05:27:43;;;;;;;43.08;24.50;;;;;;;7.73;46.38;100652.03;1711081;83;21572;-63
2022/03/15 05:30:12;;;;;;;35.60;21.10;;;;;;;8.04;45.40;100641.94;1710771;83;21159;-63
2022/03/15 05:32:40;;;;;;;40.35;24.72;;;;;;;8.31;44.41;100640.18;1685802;83;20999;-63
2022/03/15 05:35:07;;;;;;;46.37;28.42;;;;;;;8.52;43.62;100639.23;1710807;83;20986;-62
2022/03/15 05:37:36;;;;;;;37.93;24.72;;;;;;;8.77;43.10;100642.44;1710850;83;20963;-63
2022/03/15 05:40:05;;;;;;;33.90;22.75;;;;;;;9.02;42.52;100640.70;1711360;83;20892;-63
2022/03/15 05:42:34;;;;;;;34.67;22.85;;;;;;;9.23;42.01;100635.69;1699580;83;20896;-64
2022/03/15 05:45:01;;;;;;;38.55;23.70;;;;;;;9.52;41.53;100633.13;1711332;83;20982;-63
2022/03/15 05:47:30;;;;;;;34.35;24.50;;;;;;;9.81;41.19;100628.72;1709932;83;21069;-62
2022/03/15 05:49:58;;;;;;;42.88;29.35;;;;;;;10.12;40.88;100630.80;1711354;83;20907;-63
2022/03/15 05:52:25;;;;;;;42.73;29.10;;;;;;;10.40;40.22;100627.80;1690923;83;20911;-62
2022/03/15 05:54:53;;;;;;;42.95;29.63;;;;;;;10.69;39.50;100624.58;1711307;83;22188;-62
2022/03/15 05:57:20;;;;;;;45.05;32.50;;;;;;;11.01;38.82;100621.55;1690815;83;21023;-63
2022/03/15 05:59:47;;;;;;;37.42;27.35;;;;;;;11.33;38.19;100627.81;1704666;83;20923;-63
2022/03/15 06:02:14;;;;;;;41.50;28.57;;;;;;;11.60;37.73;100622.48;1705022;83;20987;-63
2022/03/15 06:04:43;;;;;;;41.00;28.07;;;;;;;11.91;37.17;100623.02;1711248;83;20974;-63
2022/03/15 06:07:11;;;;;;;39.95;28.35;;;;;;;12.24;36.76;100626.33;1710617;83;21110;-63
2022/03/15 06:09:38;;;;;;;34.20;26.02;;;;;;;12.58;36.32;100629.11;1700127;83;21454;-63
2022/03/15 06:12:07;;;;;;;37.05;27.22;;;;;;;12.83;35.66;100625.11;1711275;83;21057;-63
2022/03/15 06:14:34;;;;;;;33.70;25.55;;;;;;;13.03;35.24;100625.23;1706033;83;21008;-63
2022/03/15 06:17:01;;;;;;;33.63;25.68;;;;;;;13.30;34.89;100626.91;1711778;83;20912;-63
2022/03/15 06:19:30;;;;;;;55.15;34.33;;;;;;;13.55;34.31;100618.02;1717431;83;20990;-63
2022/03/15 06:21:59;;;;;;;65.52;41.18;;;;;;;13.84;33.84;100620.27;1718395;83;20966;-65
2022/03/15 06:24:27;;;;;;;71.67;43.98;;;;;;;14.19;33.53;100623.98;1717591;83;21429;-64
2022/03/15 06:26:54;;;;;;;63.85;41.10;;;;;;;14.62;32.75;100618.84;1718346;83;20919;-63
2022/03/15 06:29:21;;;;;;;72.40;42.60;;;;;;;15.01;32.12;100618.11;1717669;83;20954;-64
2022/03/15 06:31:48;;;;;;;52.10;36.95;;;;;;;15.34;31.56;100611.62;1700198;83;21163;-63
2022/03/15 06:34:21;;;;;;;45.55;30.48;;;;;;;15.67;31.12;100604.31;1692316;83;20990;-65
2022/03/15 06:36:53;;;;;;;32.30;23.75;;;;;;;16.00;30.62;100611.15;1695959;83;21534;-63
2022/03/15 06:39:21;;;;;;;24.77;21.70;;;;;;;16.29;30.03;100611.28;1699871;83;21583;-63
2022/03/15 06:41:50;;;;;;;32.85;21.93;;;;;;;16.52;29.59;100610.78;1718487;83;21010;-65
2022/03/15 06:44:17;;;;;;;27.67;21.85;;;;;;;16.78;29.09;100617.59;1717521;83;21279;-68
2022/03/15 06:46:44;;;;;;;25.40;20.97;;;;;;;17.02;28.69;100610.13;1718362;83;20895;-63
2022/03/15 06:49:12;;;;;;;24.98;21.27;;;;;;;17.22;28.45;100608.54;1712846;83;20988;-65
2022/03/15 06:51:40;;;;;;;22.60;19.73;;;;;;;17.50;28.23;100601.12;1685576;83;21594;-65
2022/03/15 06:54:07;;;;;;;31.00;19.35;;;;;;;17.73;27.79;100608.08;1718325;83;20967;-63
2022/03/15 06:56:34;;;;;;;25.37;18.90;;;;;;;17.89;27.67;100608.36;1717580;83;21216;-63
2022/03/15 06:59:02;;;;;;;25.60;20.02;;;;;;;18.07;27.50;100614.14;1718296;83;20947;-63
2022/03/15 07:01:29;;;;;;;32.10;21.82;;;;;;;18.28;27.17;100611.97;1717335;83;21121;-64
2022/03/15 07:03:56;;;;;;;27.98;20.72;;;;;;;18.60;26.54;100614.67;1718382;83;20946;-63
2022/03/15 07:06:24;;;;;;;28.60;21.60;;;;;;;18.89;25.98;100615.84;1717471;83;21481;-65
2022/03/15 07:08:53;;;;;;;29.42;21.75;;;;;;;19.09;25.80;100621.68;1718507;83;21541;-63
2022/03/15 07:11:20;;;;;;;30.72;22.48;;;;;;;19.26;25.39;100621.37;1717358;83;20954;-65
2022/03/15 07:13:48;;;;;;;23.27;19.67;;;;;;;19.32;25.14;100616.00;1718301;83;21003;-63
2022/03/15 07:16:17;;;;;;;27.90;20.65;;;;;;;19.37;24.88;100613.56;1717553;83;21465;-66
2022/03/15 07:18:48;;;;;;;20.95;18.55;;;;;;;19.45;24.72;100616.09;1718801;83;21532;-64
2022/03/15 07:21:16;;;;;;;24.20;19.98;;;;;;;19.56;24.69;100613.34;1717612;83;21309;-66
2022/03/15 07:23:46;;;;;;;21.68;18.20;;;;;;;19.78;24.47;100611.36;1718718;83;20887;-63
2022/03/15 07:26:13;;;;;;;24.95;19.32;;;;;;;20.04;24.08;100616.33;1716184;83;20978;-65
2022/03/15 07:28:42;;;;;;;22.58;18.45;;;;;;;20.28;23.81;100631.17;1718251;83;20962;-65
2022/03/15 07:31:09;;;;;;;21.77;17.67;;;;;;;20.49;23.41;100620.15;1701485;83;21025;-64
2022/03/15 07:33:38;;;;;;;20.00;17.80;;;;;;;20.65;23.12;100612.17;1669031;85;20957;-65
2022/03/15 07:36:06;;;;;;;24.75;17.70;;;;;;;20.79;22.88;100609.76;1646898;85;21034;-65
2022/03/15 07:38:33;;;;;;;19.48;16.48;;;;;;;20.86;22.81;100614.63;1688148;83;21105;-64
2022/03/15 07:41:01;;;;;;;24.77;17.30;;;;;;;21.04;22.55;100609.95;1706020;83;20955;-64
2022/03/15 07:43:28;;;;;;;18.52;16.07;;;;;;;21.19;22.56;100614.11;1711993;83;21475;-63
2022/03/15 07:45:57;;;;;;;20.30;17.17;;;;;;;21.40;22.19;100619.78;1712918;83;21971;-64
2022/03/15 07:48:24;;;;;;;29.63;19.10;;;;;;;21.41;22.07;100614.14;1712258;83;20939;-65
2022/03/15 07:50:52;;;;;;;20.85;17.42;;;;;;;21.50;22.04;100614.23;1707029;83;20926;-64
2022/03/15 07:53:20;;;;;;;19.77;17.70;;;;;;;21.74;21.78;100615.38;1696984;83;21002;-64
2022/03/15 07:55:47;;;;;;;22.58;16.55;;;;;;;22.02;21.47;100611.82;1708255;83;21442;-64
2022/03/15 07:58:14;;;;;;;24.05;17.20;;;;;;;22.26;21.26;100612.92;1693445;83;21253;-64
2022/03/15 08:00:41;;;;;;;18.25;16.40;;;;;;;22.30;21.02;100601.94;1713780;83;21537;-65
2022/03/15 08:03:09;;;;;;;18.87;16.93;;;;;;;22.23;21.13;100609.81;1690554;83;21540;-64
2022/03/15 08:05:37;;;;;;;21.73;17.15;;;;;;;22.34;21.03;100607.76;1718002;83;20998;-63
2022/03/15 08:08:08;;;;;;;18.15;16.25;;;;;;;22.47;20.89;100605.78;1718422;83;21417;-66
2022/03/15 08:10:36;;;;;;;21.87;17.92;;;;;;;22.63;20.73;100608.51;1717916;83;21878;-64
2022/03/15 08:13:04;;;;;;;17.07;14.87;;;;;;;22.74;20.57;100607.77;1714441;83;20943;-65
2022/03/15 08:15:32;;;;;;;18.15;14.63;;;;;;;22.87;20.26;100607.64;1717699;83;20954;-65
2022/03/15 08:18:02;;;;;;;18.23;15.90;;;;;;;23.00;20.12;100606.16;1718310;83;20958;-65
2022/03/15 08:20:33;;;;;;;22.55;18.55;;;;;;;23.13;20.03;100599.77;1700590;83;21044;-63
2022/03/15 08:23:00;;;;;;;22.20;18.02;;;;;;;23.28;19.93;100596.17;1718833;83;21530;-65
2022/03/15 08:25:28;;;;;;;21.55;15.70;;;;;;;23.42;19.81;100599.05;1710042;83;20997;-63
2022/03/15 08:27:56;;;;;;;23.73;16.97;;;;;;;23.70;19.55;100596.61;1718527;83;20979;-64
2022/03/15 08:30:24;;;;;;;18.92;17.05;;;;;;;23.88;19.42;100594.41;1705242;83;20967;-63
2022/03/15 08:32:51;;;;;;;23.27;17.98;;;;;;;24.04;19.18;100588.30;1718541;83;21064;-64
2022/03/15 08:35:18;;;;;;;21.70;17.15;;;;;;;24.07;18.88;100581.05;1711906;83;21286;-64
2022/03/15 08:37:50;;;;;;;25.48;18.00;;;;;;;24.08;18.72;100575.95;1706642;83;20903;-66
2022/03/15 08:40:18;;;;;;;20.10;17.95;;;;;;;24.14;18.56;100575.03;1695779;83;21002;-63
2022/03/15 08:42:49;;;;;;;22.27;17.85;;;;;;;24.24;18.44;100572.58;1699223;82;21448;-64
2022/03/15 08:45:18;;;;;;;20.62;18.52;;;;;;;24.24;18.44;100572.58;1713203;83;21461;-65
2022/03/15 08:47:45;;;;;;;25.12;22.48;;;;;;;24.16;17.90;100564.75;1707839;83;21260;-65
2022/03/15 08:50:12;;;;;;;19.67;17.57;;;;;;;23.96;18.12;100573.67;1703135;83;20946;-62
2022/03/15 08:52:41;;;;;;;19.00;17.07;;;;;;;23.73;17.95;100570.88;1686144;83;21497;-63
2022/03/15 08:55:09;;;;;;;33.95;19.40;;;;;;;23.53;17.90;100568.95;1715156;83;21001;-63
2022/03/15 08:57:38;;;;;;;24.18;18.37;;;;;;;23.47;17.94;100575.28;1697908;83;20954;-65
2022/03/15 09:00:07;;;;;;;26.25;18.85;;;;;;;23.21;18.27;100574.52;1716743;83;21247;-65
2022/03/15 09:02:34;;;;;;;21.55;18.55;;;;;;;23.21;18.27;100574.52;1694563;83;20962;-64
2022/03/15 09:05:02;;;;;;;21.40;18.65;;;;;;;23.05;18.15;100570.20;1706408;83;20951;-63
2022/03/15 09:07:30;;;;;;;19.87;17.85;;;;;;;22.88;18.19;100568.63;1704206;83;21512;-64
2022/03/15 09:09:59;;;;;;;20.97;18.73;;;;;;;22.66;18.21;100563.29;1696065;83;20915;-64
2022/03/15 09:12:29;;;;;;;26.50;18.75;;;;;;;22.34;18.39;100564.39;1700108;83;20986;-64
2022/03/15 09:14:57;;;;;;;20.30;17.50;;;;;;;22.28;18.36;100561.20;1700926;83;20911;-63
2022/03/15 09:17:24;;;;;;;21.90;19.60;;;;;;;22.30;18.17;100568.57;1715585;83;20888;-63
2022/03/15 09:19:51;;;;;;;21.42;18.82;;;;;;;22.24;18.21;100561.34;1718362;83;21485;-64
2022/03/15 09:22:19;;;;;;;20.17;17.90;;;;;;;22.32;18.15;100551.55;1717569;83;20930;-63
2022/03/15 09:24:46;;;;;;;23.52;19.75;;;;;;;22.53;17.96;100544.39;1718273;83;21321;-63
2022/03/15 09:27:13;;;;;;;22.32;19.20;;;;;;;22.86;17.86;100545.48;1717403;83;20900;-62
2022/03/15 09:29:40;;;;;;;21.12;18.98;;;;;;;23.25;17.61;100545.88;1718424;83;21046;-62
2022/03/15 09:32:10;;;;;;;27.52;20.45;;;;;;;23.63;17.23;100543.42;1717136;83;20954;-64
2022/03/15 09:34:38;;;;;;;28.20;20.48;;;;;;;23.87;16.87;100535.67;1703442;83;20919;-63
2022/03/15 09:37:05;;;;;;;26.33;21.23;;;;;;;24.14;16.66;100524.75;1699924;83;21260;-62
2022/03/15 09:39:33;;;;;;;25.20;22.55;;;;;;;24.34;16.55;100527.96;1711069;83;21087;-64
2022/03/15 09:42:00;;;;;;;27.87;20.70;;;;;;;24.49;16.20;100525.61;1704252;83;20974;-64
2022/03/15 09:44:28;;;;;;;22.48;20.05;;;;;;;24.69;15.98;100527.16;1678652;83;20907;-65
2022/03/15 09:47:01;;;;;;;26.10;20.82;;;;;;;25.17;15.45;100526.34;1709730;83;20962;-64
2022/03/15 09:49:28;;;;;;;24.60;21.20;;;;;;;25.17;15.45;100526.34;1707094;83;21273;-63
2022/03/15 09:51:56;;;;;;;23.02;20.68;;;;;;;25.26;15.61;100526.80;1701031;83;20974;-64
2022/03/15 09:54:25;;;;;;;30.00;21.75;;;;;;;25.26;15.52;100525.44;1700221;83;20982;-63
2022/03/15 09:56:52;;;;;;;22.82;20.43;;;;;;;25.26;15.69;100520.83;1702734;83;20928;-65
2022/03/15 09:59:21;;;;;;;28.92;20.62;;;;;;;25.40;15.58;100515.37;1707412;83;20982;-63
2022/03/15 10:01:51;;;;;;;23.62;20.43;;;;;;;25.33;15.31;100517.42;1695961;83;21397;-66
2022/03/15 10:04:19;;;;;;;21.97;19.30;;;;;;;25.36;15.13;100520.20;1699529;83;21366;-63
2022/03/15 10:06:48;;;;;;;26.00;21.30;;;;;;;25.33;14.92;100516.06;1716234;83;20899;-63
2022/03/15 10:09:18;;;;;;;24.92;22.35;;;;;;;25.30;14.87;100523.88;1717600;83;20911;-63
2022/03/15 10:11:45;;;;;;;24.07;21.45;;;;;;;25.18;14.90;100518.48;1718047;83;20975;-64
2022/03/15 10:14:13;;;;;;;25.48;21.20;;;;;;;24.86;15.06;100516.70;1717557;83;21286;-64
2022/03/15 10:16:42;;;;;;;23.07;20.68;;;;;;;24.19;15.33;100516.72;1718272;83;20919;-64
2022/03/15 10:19:12;;;;;;;23.00;20.88;;;;;;;23.31;15.85;100518.33;1718179;83;21117;-63
2022/03/15 10:21:52;;;;;;;20.95;18.85;;;;;;;23.31;15.85;100518.33;1707517;83;20958;-64
2022/03/15 10:24:25;;;;;;;22.48;20.05;;;;;;;23.05;15.85;100514.57;1718152;83;21045;-63
2022/03/15 10:26:56;;;;;;;22.70;20.37;;;;;;;22.75;16.23;100513.14;1718553;83;21245;-64
2022/03/15 10:29:26;;;;;;;24.47;20.70;;;;;;;22.53;16.47;100507.27;1717403;83;20986;-63
2022/03/15 10:31:53;;;;;;;24.47;20.45;;;;;;;22.30;16.69;100499.45;1717989;83;21045;-64
2022/03/15 10:34:21;;;;;;;22.85;20.43;;;;;;;22.03;16.90;100501.02;1717378;83;20994;-63
2022/03/15 10:36:56;;;;;;;22.58;20.17;;;;;;;21.84;17.07;100505.20;1718324;83;20922;-62
2022/03/15 10:39:20;;;;;;;22.20;19.85;;;;;;;21.60;17.49;100493.80;1716271;83;21258;-63
2022/03/15 10:42:01;;;;;;;22.22;19.82;;;;;;;21.35;17.89;100493.19;1718216;83;20962;-63
2022/03/15 10:44:34;;;;;;;27.37;20.43;;;;;;;21.12;18.24;100491.52;1717598;82;20903;-64
2022/03/15 10:47:17;;;;;;;26.33;22.00;;;;;;;20.91;18.55;100485.84;1718453;83;20998;-62
2022/03/15 10:49:54;;;;;;;23.73;20.50;;;;;;;20.70;18.89;100486.11;1698520;83;20899;-63
2022/03/15 10:52:40;;;;;;;22.02;19.50;;;;;;;20.49;19.23;100479.60;1717492;83;21242;-63
2022/03/15 10:55:27;;;;;;;23.52;19.80;;;;;;;20.32;19.51;100467.58;1718370;83;20919;-63
2022/03/15 10:58:05;;;;;;;21.35;19.25;;;;;;;20.08;19.57;100460.07;1718658;83;21006;-64
2022/03/15 11:00:38;;;;;;;20.97;18.80;;;;;;;19.63;19.55;100461.72;1717609;83;21029;-64
2022/03/15 11:03:13;;;;;;;21.48;19.27;;;;;;;19.18;20.22;100465.09;1718797;83;21422;-64
2022/03/15 11:05:41;;;;;;;;;;;;;;;18.90;20.67;100460.60;1699928;83;21189;-63
2022/03/15 11:08:20;;;;;;;33.98;19.07;;;;;;;18.67;21.03;100451.98;1718348;82;20125;-63
2022/03/15 11:10:50;;;;;;;34.00;19.17;;;;;;;18.48;21.31;100453.53;1717670;83;21532;-62
2022/03/15 11:13:18;;;;;;;33.18;20.12;;;;;;;18.35;21.42;100444.53;1717497;83;20951;-64
2022/03/15 11:15:48;;;;;;;27.10;19.10;;;;;;;18.28;21.59;100444.97;1718514;83;21423;-62
2022/03/15 11:18:19;;;;;;;20.82;18.75;;;;;;;18.24;21.66;100443.20;1717358;83;20884;-63
2022/03/15 11:20:50;;;;;;;29.23;18.55;;;;;;;18.21;21.79;100439.55;1718161;83;20907;-64
2022/03/15 11:23:19;;;;;;;20.97;18.57;;;;;;;18.25;21.84;100435.97;1717463;83;21015;-63